Terminal Aerodrome Forecast
Issued by NWS Duluth, MN

Home | Current Version | Previous Version | Text Only | Print | Product List | Glossary On
Versions: 1 2 3 4 5 6 7 8 9 10 11 12 13 14 15 16 17 18 19 20 21 22 23 24 25 26 27 28 29 30 31 32
000
FTUS43 KDLH 260800 AAA
TAFDLH
TAF AMD
KDLH 260825Z 2608/2706 32015G24KT 6SM -SN OVC028
      TEMPO 2608/2610 5SM -SHSN OVC019
     FM261100 33014G20KT P6SM BKN030
     FM261600 34012KT P6SM BKN050
     FM262100 35010KT P6SM SCT060
     FM270200 02007KT P6SM SKC=

USA.gov is the U.S. government's official web portal to all federal, state and local government web resources and services.